createdAt,value
2023-05-06T00:00:10.583Z,28.20
2023-05-06T00:01:10.553Z,28.60
2023-05-06T00:02:10.521Z,28.60
2023-05-06T00:03:10.568Z,28.81
2023-05-06T00:04:10.538Z,29.11
2023-05-06T00:05:10.738Z,29.33
2023-05-06T00:06:10.473Z,29.84
2023-05-06T00:07:10.488Z,29.11
2023-05-06T00:08:10.465Z,29.43
2023-05-06T00:09:10.425Z,29.74
2023-05-06T00:10:10.456Z,30.35
2023-05-06T00:11:10.398Z,29.94
2023-05-06T00:12:10.397Z,29.64
2023-05-06T00:13:10.382Z,30.04
2023-05-06T00:14:10.361Z,30.04
2023-05-06T00:15:10.545Z,29.74
2023-05-06T00:16:10.357Z,29.84
2023-05-06T00:17:10.323Z,30.04
2023-05-06T00:18:10.386Z,30.15
2023-05-06T00:19:10.283Z,30.45
2023-05-06T00:20:10.279Z,30.55
2023-05-06T00:21:10.290Z,30.65
2023-05-06T00:22:10.259Z,30.86
2023-05-06T00:23:10.267Z,31.47
2023-05-06T00:24:10.261Z,31.06
2023-05-06T00:25:10.506Z,31.16
2023-05-06T00:26:10.218Z,31.77
2023-05-06T00:27:10.165Z,31.47
2023-05-06T00:28:10.167Z,30.55
2023-05-06T00:29:10.148Z,30.35
2023-05-06T00:30:10.152Z,30.15
2023-05-06T00:31:10.149Z,30.15
2023-05-06T00:32:10.129Z,30.15
2023-05-06T00:33:10.193Z,29.53
2023-05-06T00:34:10.129Z,29.74
2023-05-06T00:35:10.464Z,29.74
2023-05-06T00:36:10.047Z,29.33
2023-05-06T00:37:10.046Z,30.35
2023-05-06T00:38:10.020Z,28.82
2023-05-06T00:39:10.040Z,29.43
2023-05-06T00:40:10.018Z,29.02
2023-05-06T00:41:10.009Z,28.82
2023-05-06T00:42:09.988Z,28.72
2023-05-06T00:43:09.959Z,28.53
2023-05-06T00:44:09.949Z,29.65
2023-05-06T00:45:10.221Z,29.04
2023-05-06T00:46:09.976Z,29.85
2023-05-06T00:47:09.985Z,29.75
2023-05-06T00:48:09.956Z,29.75
2023-05-06T00:49:09.940Z,29.96
2023-05-06T00:50:09.886Z,29.55
2023-05-06T00:51:09.853Z,29.96
2023-05-06T00:52:09.844Z,29.55
2023-05-06T00:53:09.820Z,29.85
2023-05-06T00:54:09.859Z,29.96
2023-05-06T00:55:10.020Z,30.36
2023-05-06T00:56:09.809Z,29.75
2023-05-06T00:57:09.759Z,30.16
2023-05-06T00:58:09.806Z,30.38
2023-05-06T00:59:09.747Z,30.99
2023-05-06T01:00:09.723Z,29.77
2023-05-06T01:01:09.757Z,29.77
2023-05-06T01:02:09.729Z,29.36
2023-05-06T01:03:09.900Z,29.56
2023-05-06T01:04:09.704Z,29.87
2023-05-06T01:05:09.885Z,29.77
2023-05-06T01:06:09.672Z,29.16
2023-05-06T01:07:09.626Z,28.54
2023-05-06T01:08:09.648Z,28.14
2023-05-06T01:09:09.622Z,27.73
2023-05-06T01:10:09.605Z,28.34
2023-05-06T01:11:09.574Z,27.73
2023-05-06T01:12:09.606Z,27.42
2023-05-06T01:13:09.619Z,27.12
2023-05-06T01:14:09.541Z,27.52
2023-05-06T01:15:09.781Z,27.22
2023-05-06T01:16:09.547Z,27.22
2023-05-06T01:17:09.695Z,27.22
2023-05-06T01:18:09.550Z,26.71
2023-05-06T01:19:09.486Z,26.50
2023-05-06T01:20:09.460Z,26.91
2023-05-06T01:21:09.493Z,27.01
2023-05-06T01:22:09.463Z,26.91
2023-05-06T01:23:09.425Z,26.61
2023-05-06T01:24:09.409Z,26.71
2023-05-06T01:25:09.725Z,26.61
2023-05-06T01:26:09.402Z,26.40
2023-05-06T01:27:09.374Z,26.40
2023-05-06T01:28:09.351Z,26.61
2023-05-06T01:29:09.332Z,26.20
2023-05-06T01:30:09.335Z,26.30
2023-05-06T01:31:09.398Z,26.81
2023-05-06T01:32:09.314Z,26.92
2023-05-06T01:33:09.292Z,26.92
2023-05-06T01:34:09.396Z,26.51
2023-05-06T01:35:09.405Z,26.21
2023-05-06T01:36:09.261Z,26.62
2023-05-06T01:37:09.208Z,26.42
2023-05-06T01:38:09.220Z,26.51
2023-05-06T01:39:09.217Z,26.31
2023-05-06T01:40:09.211Z,26.01
2023-05-06T01:41:09.194Z,26.11
2023-05-06T01:42:09.163Z,25.19
2023-05-06T01:43:09.143Z,25.29
2023-05-06T01:44:09.173Z,24.99
2023-05-06T01:45:09.321Z,24.99
2023-05-06T01:46:09.161Z,24.99
2023-05-06T01:47:09.090Z,24.99
2023-05-06T01:48:09.144Z,25.70
2023-05-06T01:49:09.083Z,25.29
2023-05-06T01:50:09.043Z,24.99
2023-05-06T01:51:09.041Z,24.27
2023-05-06T01:52:09.029Z,23.97
2023-05-06T01:53:09.032Z,24.07
2023-05-06T01:54:09.016Z,23.25
2023-05-06T01:55:09.133Z,23.46
2023-05-06T01:56:08.975Z,23.25
2023-05-06T01:57:08.947Z,23.05
2023-05-06T01:58:08.960Z,23.15
2023-05-06T01:59:08.940Z,23.25
2023-05-06T02:00:08.909Z,23.76
2023-05-06T02:01:08.900Z,22.94
2023-05-06T02:02:09.196Z,23.15
2023-05-06T02:03:09.024Z,23.66
2023-05-06T02:04:08.943Z,23.66
2023-05-06T02:05:09.052Z,23.05
2023-05-06T02:06:08.834Z,23.05
2023-05-06T02:07:08.815Z,23.15
2023-05-06T02:08:08.899Z,23.66
2023-05-06T02:09:08.778Z,23.56
2023-05-06T02:10:08.788Z,23.66
2023-05-06T02:11:08.759Z,24.88
2023-05-06T02:12:08.762Z,23.46
2023-05-06T02:13:08.799Z,23.67
2023-05-06T02:14:08.724Z,23.77
2023-05-06T02:15:08.811Z,23.67
2023-05-06T02:16:08.780Z,23.77
2023-05-06T02:17:08.680Z,24.38
2023-05-06T02:18:08.689Z,23.47
2023-05-06T02:19:08.643Z,23.67
2023-05-06T02:20:08.646Z,23.16
2023-05-06T02:21:08.609Z,22.75
2023-05-06T02:22:08.695Z,22.45
2023-05-06T02:23:08.612Z,22.34
2023-05-06T02:24:08.578Z,22.14
2023-05-06T02:25:08.780Z,21.33
2023-05-06T02:26:08.563Z,21.22
2023-05-06T02:27:08.641Z,21.22
2023-05-06T02:28:08.530Z,21.63
2023-05-06T02:29:08.520Z,21.83
2023-05-06T02:30:08.509Z,21.33
2023-05-06T02:31:08.535Z,21.12
2023-05-06T02:32:08.500Z,21.22
2023-05-06T02:33:08.485Z,21.12
2023-05-06T02:34:08.455Z,21.53
2023-05-06T02:35:08.696Z,20.61
2023-05-06T02:36:08.436Z,20.81
2023-05-06T02:37:08.408Z,20.40
2023-05-06T02:38:08.392Z,20.71
2023-05-06T02:39:08.373Z,20.92
2023-05-06T02:40:08.394Z,20.61
2023-05-06T02:41:08.373Z,20.31
2023-05-06T02:42:08.328Z,20.51
2023-05-06T02:43:08.326Z,20.51
2023-05-06T02:44:08.312Z,20.51
2023-05-06T02:45:08.431Z,20.40
2023-05-06T02:46:08.328Z,20.71
2023-05-06T02:47:08.393Z,20.81
2023-05-06T02:48:08.276Z,20.81
2023-05-06T02:49:08.246Z,20.40
2023-05-06T02:50:08.252Z,20.51
2023-05-06T02:51:08.199Z,20.61
2023-05-06T02:52:08.234Z,20.31
2023-05-06T02:53:08.201Z,20.10
2023-05-06T02:54:08.183Z,20.20
2023-05-06T02:55:08.383Z,20.20
2023-05-06T02:56:08.172Z,21.02
2023-05-06T02:57:08.133Z,19.69
2023-05-06T02:58:08.123Z,19.38
2023-05-06T02:59:08.130Z,19.08
2023-05-06T03:00:08.123Z,18.87
2023-05-06T03:01:08.151Z,18.67
2023-05-06T03:02:08.058Z,18.26
2023-05-06T03:03:08.098Z,18.37
2023-05-06T03:04:08.075Z,18.06
2023-05-06T03:05:08.168Z,17.85
2023-05-06T03:06:08.022Z,17.96
2023-05-06T03:07:07.989Z,17.55
2023-05-06T03:08:07.987Z,17.44
2023-05-06T03:09:07.978Z,17.44
2023-05-06T03:10:07.968Z,17.44
2023-05-06T03:11:08.361Z,17.44
2023-05-06T03:12:07.916Z,17.55
2023-05-06T03:13:07.963Z,17.44
2023-05-06T03:14:07.948Z,17.55
2023-05-06T03:15:07.970Z,17.55
2023-05-06T03:16:07.857Z,17.13
2023-05-06T03:17:07.912Z,17.33
2023-05-06T03:18:07.926Z,16.72
2023-05-06T03:19:07.838Z,16.83
2023-05-06T03:20:07.812Z,16.83
2023-05-06T03:21:07.856Z,16.83
2023-05-06T03:22:07.805Z,16.52
2023-05-06T03:23:07.790Z,16.52
2023-05-06T03:24:07.776Z,16.42
2023-05-06T03:25:08.129Z,16.42
2023-05-06T03:26:07.740Z,16.53
2023-05-06T03:27:07.729Z,16.53
2023-05-06T03:28:07.708Z,17.04
2023-05-06T03:29:07.676Z,16.83
2023-05-06T03:30:07.668Z,16.63
2023-05-06T03:31:07.700Z,16.33
2023-05-06T03:32:07.673Z,16.02
2023-05-06T03:34:07.661Z,16.22
2023-05-06T03:35:07.744Z,16.94
2023-05-06T03:36:07.607Z,16.33
2023-05-06T03:37:07.653Z,16.53
2023-05-06T03:38:07.569Z,16.02
2023-05-06T03:39:07.561Z,16.12
2023-05-06T03:40:07.562Z,16.63
2023-05-06T03:41:07.515Z,16.73
2023-05-06T03:42:09.196Z,16.33
2023-05-06T03:43:07.522Z,16.42
2023-05-06T03:44:07.502Z,16.33
2023-05-06T03:45:07.548Z,15.92
2023-05-06T03:46:07.551Z,16.22
2023-05-06T03:47:07.442Z,16.22
2023-05-06T03:48:07.485Z,16.22
2023-05-06T03:49:07.434Z,16.33
2023-05-06T03:50:07.402Z,16.12
2023-05-06T03:51:07.400Z,16.12
2023-05-06T03:52:07.377Z,15.92
2023-05-06T03:53:07.368Z,15.71
2023-05-06T03:54:07.337Z,16.12
2023-05-06T03:55:07.464Z,16.02
2023-05-06T03:56:07.329Z,15.92
2023-05-06T03:57:07.330Z,15.61
2023-05-06T03:58:07.285Z,16.02
2023-05-06T03:59:07.292Z,15.61
2023-05-06T04:00:07.278Z,15.61
2023-05-06T04:01:07.250Z,15.30
2023-05-06T04:02:07.332Z,15.41
2023-05-06T04:03:07.289Z,15.30
2023-05-06T04:04:07.252Z,15.51
2023-05-06T04:05:07.313Z,16.11
2023-05-06T04:06:07.178Z,15.20
2023-05-06T04:07:07.178Z,15.19
2023-05-06T04:08:07.144Z,15.20
2023-05-06T04:09:07.160Z,15.41
2023-05-06T04:10:07.141Z,15.30
2023-05-06T04:11:07.113Z,15.30
2023-05-06T04:12:07.113Z,15.20
2023-05-06T04:13:07.133Z,14.89
2023-05-06T04:14:07.073Z,15.09
2023-05-06T04:15:07.100Z,14.99
2023-05-06T04:16:07.291Z,15.30
2023-05-06T04:17:07.798Z,14.99
2023-05-06T04:18:07.070Z,15.50
2023-05-06T04:19:07.049Z,14.89
2023-05-06T04:20:06.985Z,15.19
2023-05-06T04:21:06.971Z,14.99
2023-05-06T04:22:06.940Z,15.70
2023-05-06T04:23:06.981Z,14.69
2023-05-06T04:24:06.965Z,15.10
2023-05-06T04:25:06.912Z,14.49
2023-05-06T04:26:06.895Z,14.69
2023-05-06T04:27:06.915Z,14.89
2023-05-06T04:28:06.892Z,14.39
2023-05-06T04:29:06.854Z,14.38
2023-05-06T04:30:06.854Z,14.38
2023-05-06T04:31:06.839Z,14.38
2023-05-06T04:32:06.905Z,14.28
2023-05-06T04:33:06.869Z,14.38
2023-05-06T04:34:06.803Z,14.79
2023-05-06T04:35:06.792Z,14.18
2023-05-06T04:36:06.755Z,13.67
2023-05-06T04:37:06.774Z,13.67
2023-05-06T04:38:06.749Z,14.17
2023-05-06T04:39:06.782Z,13.56
2023-05-06T04:40:06.754Z,14.07
2023-05-06T04:41:06.696Z,13.78
2023-05-06T04:42:06.713Z,13.87
2023-05-06T04:43:06.668Z,14.07
2023-05-06T04:44:06.659Z,13.06
2023-05-06T04:45:06.712Z,13.06
2023-05-06T04:46:06.655Z,13.26
2023-05-06T04:47:06.637Z,13.46
2023-05-06T04:48:06.606Z,13.36
2023-05-06T04:49:06.578Z,12.95
2023-05-06T04:50:06.584Z,13.06
2023-05-06T04:51:06.600Z,13.26
2023-05-06T04:52:06.547Z,13.46
2023-05-06T04:53:06.531Z,13.06
2023-05-06T04:54:06.510Z,12.95
2023-05-06T04:55:06.597Z,13.46
2023-05-06T04:56:06.498Z,12.95
2023-05-06T04:57:06.490Z,13.06
2023-05-06T04:58:06.454Z,13.87
2023-05-06T04:59:06.455Z,13.56
2023-05-06T05:00:06.463Z,13.87
2023-05-06T05:01:06.453Z,13.36
2023-05-06T05:02:06.481Z,13.46
2023-05-06T05:03:06.469Z,13.56
2023-05-06T05:04:06.393Z,13.06
2023-05-06T05:05:06.384Z,13.15
2023-05-06T05:06:06.380Z,13.36
2023-05-06T05:07:06.341Z,13.26
2023-05-06T05:08:06.315Z,13.26
2023-05-06T05:09:06.312Z,13.15
2023-05-06T05:10:06.329Z,13.06
2023-05-06T05:11:06.284Z,13.06
2023-05-06T05:12:06.265Z,13.06
2023-05-06T05:13:06.397Z,13.26
2023-05-06T05:14:06.253Z,13.15
2023-05-06T05:15:06.260Z,13.06
2023-05-06T05:16:06.215Z,13.56
2023-05-06T05:17:06.222Z,13.56
2023-05-06T05:18:06.314Z,13.87
2023-05-06T05:19:08.334Z,13.35
2023-05-06T05:20:06.184Z,13.35
2023-05-06T05:21:06.160Z,13.76
2023-05-06T05:22:06.171Z,13.96
2023-05-06T05:23:06.158Z,13.96
2023-05-06T05:24:06.158Z,13.35
2023-05-06T05:25:07.827Z,13.66
2023-05-06T05:26:06.078Z,13.45
2023-05-06T05:27:06.114Z,13.76
2023-05-06T05:28:06.099Z,13.96
2023-05-06T05:29:06.127Z,14.98
2023-05-06T05:30:06.024Z,14.17
2023-05-06T05:31:06.912Z,14.37
2023-05-06T05:32:05.988Z,13.96
2023-05-06T05:33:06.072Z,14.07
2023-05-06T05:34:05.955Z,15.09
2023-05-06T05:35:05.979Z,14.58
2023-05-06T05:36:05.937Z,14.27
2023-05-06T05:37:05.934Z,13.86
2023-05-06T05:38:05.916Z,13.35
2023-05-06T05:39:05.915Z,13.35
2023-05-06T05:40:05.884Z,12.84
2023-05-06T05:41:05.891Z,12.63
2023-05-06T05:42:05.879Z,12.83
2023-05-06T05:43:05.866Z,13.13
2023-05-06T05:44:05.862Z,14.26
2023-05-06T05:45:05.825Z,13.95
2023-05-06T05:46:05.855Z,13.75
2023-05-06T05:47:05.803Z,15.37
2023-05-06T05:48:05.819Z,15.07
2023-05-06T05:49:05.764Z,15.89
2023-05-06T05:50:05.766Z,16.39
2023-05-06T05:51:05.759Z,16.09
2023-05-06T05:52:05.734Z,18.74
2023-05-06T05:53:05.741Z,18.84
2023-05-06T05:54:05.707Z,18.54
2023-05-06T05:55:05.703Z,19.96
2023-05-06T05:56:05.673Z,20.57
2023-05-06T05:57:05.691Z,20.78
2023-05-06T05:58:05.669Z,20.78
2023-05-06T05:59:05.640Z,21.69
2023-05-06T06:00:05.608Z,22.20
2023-05-06T06:01:05.607Z,23.02
2023-05-06T06:02:05.626Z,24.34
2023-05-06T06:03:05.643Z,23.12
2023-05-06T06:04:05.758Z,24.25
2023-05-06T06:05:05.552Z,24.05
2023-05-06T06:06:05.594Z,23.23
2023-05-06T06:07:05.544Z,24.45
2023-05-06T06:08:05.502Z,23.74
2023-05-06T06:09:05.594Z,23.64
2023-05-06T06:10:05.632Z,24.25
2023-05-06T06:11:05.493Z,23.64
2023-05-06T06:12:05.453Z,22.82
2023-05-06T06:13:05.449Z,22.61
2023-05-06T06:14:05.466Z,22.81
2023-05-06T06:15:05.457Z,22.91
2023-05-06T06:16:05.469Z,22.30
2023-05-06T06:17:05.391Z,22.00
2023-05-06T06:18:05.421Z,21.89
2023-05-06T06:19:05.391Z,21.98
2023-05-06T06:20:05.385Z,22.39
2023-05-06T06:21:05.363Z,22.29
2023-05-06T06:22:05.514Z,22.60
2023-05-06T06:23:05.303Z,22.90
2023-05-06T06:24:05.329Z,22.90
2023-05-06T06:25:05.286Z,23.31
2023-05-06T06:26:05.264Z,23.21
2023-05-06T06:27:05.290Z,23.31
2023-05-06T06:28:05.236Z,23.52
2023-05-06T06:29:05.229Z,23.72
2023-05-06T06:30:05.236Z,23.92
2023-05-06T06:31:05.229Z,23.52
2023-05-06T06:32:05.235Z,24.22
2023-05-06T06:33:05.183Z,24.13
2023-05-06T06:34:05.219Z,24.21
2023-05-06T06:35:05.141Z,24.42
2023-05-06T06:36:05.115Z,24.21
2023-05-06T06:37:07.447Z,24.01
2023-05-06T06:38:05.119Z,24.21
2023-05-06T06:39:05.110Z,24.73
2023-05-06T06:40:05.060Z,26.05
2023-05-06T06:41:05.060Z,25.43
2023-05-06T06:42:05.041Z,25.43
2023-05-06T06:43:05.341Z,25.43
2023-05-06T06:44:05.007Z,26.54
2023-05-06T06:45:05.022Z,27.25
2023-05-06T06:46:05.021Z,28.38
2023-05-06T06:47:04.990Z,29.39
2023-05-06T06:48:05.018Z,30.30
2023-05-06T06:49:04.946Z,31.63
2023-05-06T06:50:04.968Z,32.34
2023-05-06T06:51:04.928Z,32.65
2023-05-06T06:52:04.910Z,33.56
2023-05-06T06:53:06.377Z,34.58
2023-05-06T06:54:04.883Z,34.56
2023-05-06T06:55:04.884Z,34.77
2023-05-06T06:56:04.884Z,35.38
2023-05-06T06:57:04.857Z,36.69
2023-05-06T06:58:04.837Z,36.90
2023-05-06T06:59:04.816Z,38.63
2023-05-06T07:00:04.814Z,39.34
2023-05-06T07:01:04.819Z,40.44
2023-05-06T07:02:04.795Z,39.73
2023-05-06T07:03:04.781Z,41.35
2023-05-06T07:04:07.035Z,40.75
2023-05-06T07:05:04.759Z,41.74
2023-05-06T07:06:04.775Z,42.96
2023-05-06T07:07:04.734Z,42.66
2023-05-06T07:08:04.672Z,44.08
2023-05-06T07:09:04.687Z,44.99
2023-05-06T07:10:04.662Z,45.40
2023-05-06T07:11:04.717Z,47.43
2023-05-06T07:12:04.664Z,47.41
2023-05-06T07:13:04.638Z,47.30
2023-05-06T07:14:04.602Z,48.63
2023-05-06T07:15:04.625Z,50.15
2023-05-06T07:16:04.603Z,52.18
2023-05-06T07:17:04.582Z,54.31
2023-05-06T07:18:04.598Z,55.63
2023-05-06T07:19:04.544Z,54.61
2023-05-06T07:20:04.553Z,56.31
2023-05-06T07:21:04.517Z,56.82
2023-05-06T07:22:04.493Z,55.20
2023-05-06T07:23:04.482Z,58.01
2023-05-06T07:24:04.466Z,58.52
2023-05-06T07:25:04.468Z,62.27
2023-05-06T07:26:04.443Z,67.24
2023-05-06T07:27:04.429Z,68.87
2023-05-06T07:28:04.420Z,68.23
2023-05-06T07:29:04.405Z,69.74
2023-05-06T07:30:04.524Z,73.70
2023-05-06T07:31:04.429Z,74.00
2023-05-06T07:32:04.375Z,78.46
2023-05-06T07:33:04.372Z,75.28
2023-05-06T07:34:04.334Z,76.60
2023-05-06T07:35:04.341Z,78.33
2023-05-06T07:36:04.310Z,79.00
2023-05-06T07:37:04.299Z,78.89
2023-05-06T07:38:04.270Z,79.00
2023-05-06T07:39:04.314Z,81.63
2023-05-06T07:40:04.248Z,82.44
2023-05-06T07:41:04.242Z,82.54
2023-05-06T07:42:04.224Z,83.45
2023-05-06T07:43:04.234Z,82.84
2023-05-06T07:44:04.243Z,82.84
2023-05-06T07:45:04.209Z,83.55
2023-05-06T07:46:04.231Z,83.15
2023-05-06T07:47:04.331Z,82.30
2023-05-06T07:48:04.193Z,83.04
2023-05-06T07:49:04.177Z,81.39
2023-05-06T07:50:04.142Z,81.18
2023-05-06T07:51:04.100Z,80.98
2023-05-06T07:52:04.121Z,81.90
2023-05-06T07:53:04.152Z,80.88
2023-05-06T07:54:04.081Z,79.46
2023-05-06T07:55:04.047Z,81.69
2023-05-06T07:56:04.029Z,85.94
2023-05-06T07:57:04.019Z,84.83
2023-05-06T07:58:04.061Z,88.48
2023-05-06T07:59:03.985Z,88.57
2023-05-06T08:00:03.977Z,86.85
2023-05-06T08:01:03.958Z,85.39
2023-05-06T08:02:04.026Z,90.66
2023-05-06T08:03:04.105Z,93.74
2023-05-06T08:04:04.034Z,94.45
2023-05-06T08:05:03.918Z,93.63
2023-05-06T08:06:03.948Z,94.14
2023-05-06T08:07:03.888Z,92.79
2023-05-06T08:08:03.892Z,93.08
2023-05-06T08:09:03.859Z,94.91
2023-05-06T08:10:03.843Z,94.20
2023-05-06T08:11:03.852Z,93.79
2023-05-06T08:12:03.851Z,93.59
2023-05-06T08:13:03.873Z,90.72
2023-05-06T08:14:03.799Z,89.81
2023-05-06T08:15:03.779Z,88.70
2023-05-06T08:16:03.843Z,88.55
2023-05-06T08:17:03.779Z,90.98
2023-05-06T08:18:13.679Z,95.27
2023-05-06T08:19:04.711Z,93.44
2023-05-06T08:20:03.723Z,92.60
2023-05-06T08:21:03.734Z,94.11
2023-05-06T08:22:03.691Z,95.93
2023-05-06T08:23:03.667Z,94.87
2023-05-06T08:24:03.655Z,96.09
2023-05-06T08:25:03.642Z,97.20
2023-05-06T08:26:03.665Z,96.19
2023-05-06T08:27:03.612Z,94.98
2023-05-06T08:28:03.610Z,94.73
2023-05-06T08:29:03.586Z,95.34
2023-05-06T08:30:03.650Z,95.34
2023-05-06T08:31:03.566Z,95.54
2023-05-06T08:32:03.625Z,95.64
2023-05-06T08:33:03.594Z,96.55
2023-05-06T08:34:03.520Z,96.34
2023-05-06T08:35:03.532Z,95.74
2023-05-06T08:36:03.501Z,95.59
2023-05-06T08:37:03.477Z,97.41
2023-05-06T08:38:03.464Z,98.16
2023-05-06T08:39:03.434Z,97.31
2023-05-06T08:40:03.481Z,97.21
2023-05-06T08:41:03.445Z,96.50
2023-05-06T08:42:03.411Z,95.29
2023-05-06T08:43:03.404Z,96.76
2023-05-06T08:44:03.420Z,97.06
2023-05-06T08:45:03.360Z,96.86
2023-05-06T08:46:03.383Z,96.45
2023-05-06T08:47:03.343Z,95.65
2023-05-06T08:48:03.398Z,96.11
2023-05-06T08:49:03.344Z,96.21
2023-05-06T08:50:03.309Z,96.81
2023-05-06T08:51:03.297Z,97.62
2023-05-06T08:52:03.281Z,97.72
2023-05-06T08:53:03.325Z,97.72
2023-05-06T08:54:03.263Z,97.62
2023-05-06T08:55:03.284Z,97.72
2023-05-06T08:56:03.223Z,97.72
2023-05-06T08:57:03.210Z,97.17
2023-05-06T08:58:03.213Z,97.62
2023-05-06T08:59:03.189Z,96.92
2023-05-06T09:00:03.315Z,96.31
2023-05-06T09:01:03.203Z,96.81
2023-05-06T09:02:03.222Z,98.33
2023-05-06T09:03:03.197Z,98.43
2023-05-06T09:04:03.115Z,98.43
2023-05-06T09:05:03.104Z,98.27
2023-05-06T09:06:03.085Z,98.22
2023-05-06T09:07:03.096Z,98.33
2023-05-06T09:08:03.072Z,98.33
2023-05-06T09:09:03.044Z,98.43
2023-05-06T09:10:03.037Z,98.33
2023-05-06T09:11:03.027Z,98.18
2023-05-06T09:12:03.047Z,97.98
2023-05-06T09:13:03.090Z,98.48
2023-05-06T09:14:02.994Z,98.44
2023-05-06T09:15:02.973Z,98.03
2023-05-06T09:16:02.971Z,98.13
2023-05-06T09:17:03.032Z,97.99
2023-05-06T09:18:03.007Z,98.29
2023-05-06T09:19:02.931Z,98.29
2023-05-06T09:20:02.919Z,97.99
2023-05-06T09:21:02.875Z,97.58
2023-05-06T09:22:02.929Z,97.84
2023-05-06T09:23:02.877Z,97.58
2023-05-06T09:24:02.853Z,97.64
2023-05-06T09:25:02.824Z,97.74
2023-05-06T09:26:02.844Z,97.64
2023-05-06T09:27:02.807Z,95.77
2023-05-06T09:28:02.802Z,96.17
2023-05-06T09:29:02.775Z,97.08
2023-05-06T09:30:02.789Z,96.78
2023-05-06T09:31:02.828Z,97.24
2023-05-06T09:32:02.732Z,97.13
2023-05-06T09:33:02.757Z,96.83
2023-05-06T09:34:02.701Z,97.74
2023-05-06T09:35:02.716Z,96.83
2023-05-06T09:36:02.717Z,94.46
2023-05-06T09:37:02.667Z,96.22
2023-05-06T09:38:02.821Z,97.08
2023-05-06T09:39:02.637Z,96.98
2023-05-06T09:40:02.682Z,97.13
2023-05-06T09:41:02.644Z,95.53
2023-05-06T09:42:02.599Z,96.08
2023-05-06T09:43:02.686Z,95.48
2023-05-06T09:44:02.593Z,90.69
2023-05-06T09:45:02.629Z,92.91
2023-05-06T09:46:02.607Z,94.67
2023-05-06T09:47:02.515Z,93.46
2023-05-06T09:48:02.569Z,94.23
2023-05-06T09:49:02.540Z,94.02
2023-05-06T09:50:02.512Z,91.11
2023-05-06T09:51:02.477Z,91.82
2023-05-06T09:52:02.477Z,90.00
2023-05-06T09:53:02.457Z,89.80
2023-05-06T09:54:02.440Z,90.41
2023-05-06T09:55:02.440Z,86.88
2023-05-06T09:56:02.406Z,89.00
2023-05-06T09:57:02.381Z,88.75
2023-05-06T09:58:02.396Z,87.15
2023-05-06T09:59:02.383Z,89.46
2023-05-06T10:00:02.347Z,89.66
2023-05-06T10:01:02.320Z,90.66
2023-05-06T10:02:02.423Z,88.05
2023-05-06T10:03:02.404Z,89.10
2023-05-06T10:04:02.448Z,91.77
2023-05-06T10:05:02.477Z,92.37
2023-05-06T10:06:02.298Z,92.53
2023-05-06T10:07:02.245Z,90.72
2023-05-06T10:08:02.274Z,83.23
2023-05-06T10:09:02.228Z,84.74
2023-05-06T10:10:02.236Z,84.63
2023-05-06T10:11:02.211Z,83.23
2023-05-06T10:12:02.211Z,86.04
2023-05-06T10:13:02.234Z,87.41
2023-05-06T10:14:02.178Z,86.96
2023-05-06T10:15:02.368Z,88.12
2023-05-06T10:16:02.198Z,86.08
2023-05-06T10:17:02.157Z,81.16
2023-05-06T10:18:02.164Z,82.63
2023-05-06T10:19:02.125Z,84.29
2023-05-06T10:20:02.085Z,81.18
2023-05-06T10:21:02.076Z,80.54
2023-05-06T10:22:04.452Z,78.60
2023-05-06T10:23:02.036Z,78.67
2023-05-06T10:24:02.053Z,75.52
2023-05-06T10:25:02.007Z,66.79
2023-05-06T10:26:02.018Z,64.39
2023-05-06T10:27:02.022Z,66.56
2023-05-06T10:28:03.350Z,63.79
2023-05-06T10:29:01.953Z,62.29
2023-05-06T10:30:01.946Z,65.76
2023-05-06T10:31:01.948Z,67.66
2023-05-06T10:32:02.012Z,61.16
2023-05-06T10:33:02.005Z,60.57
2023-05-06T10:34:01.891Z,64.33
2023-05-06T10:35:01.882Z,63.23
2023-05-06T10:36:01.879Z,62.20
2023-05-06T10:37:01.854Z,61.15
2023-05-06T10:38:01.830Z,60.79
2023-05-06T10:39:01.817Z,58.04
2023-05-06T10:40:01.828Z,54.24
2023-05-06T10:41:01.842Z,54.93
2023-05-06T10:42:01.790Z,54.66
2023-05-06T10:43:01.753Z,56.52
2023-05-06T10:44:01.750Z,56.20
2023-05-06T10:45:01.767Z,55.97
2023-05-06T10:46:01.795Z,52.79
2023-05-06T10:47:01.716Z,54.65
2023-05-06T10:48:01.745Z,52.54
2023-05-06T10:49:01.675Z,52.89
2023-05-06T10:50:01.770Z,52.89
2023-05-06T10:51:01.659Z,50.58
2023-05-06T10:52:01.635Z,52.24
2023-05-06T10:53:01.623Z,49.09
2023-05-06T10:54:01.663Z,51.20
2023-05-06T10:55:01.625Z,50.58
2023-05-06T10:56:01.601Z,49.99
2023-05-06T10:57:01.561Z,49.71
2023-05-06T10:58:01.563Z,50.60
2023-05-06T10:59:01.563Z,52.00
2023-05-06T11:00:01.553Z,52.56
2023-05-06T11:01:01.553Z,49.81
2023-05-06T11:02:01.541Z,47.81
2023-05-06T11:03:01.698Z,48.46
2023-05-06T11:04:01.502Z,47.81
2023-05-06T11:05:01.453Z,47.32
2023-05-06T11:06:01.524Z,47.13
2023-05-06T11:07:01.434Z,45.89
2023-05-06T11:08:01.450Z,47.44
2023-05-06T11:09:01.441Z,50.28
2023-05-06T11:10:01.414Z,51.54
2023-05-06T11:11:01.399Z,49.80
2023-05-06T11:12:01.378Z,51.92
2023-05-06T11:13:01.415Z,53.06
2023-05-06T11:14:01.360Z,54.98
2023-05-06T11:15:01.349Z,55.58
2023-05-06T11:16:01.330Z,56.03
2023-05-06T11:17:01.450Z,55.43
2023-05-06T11:18:01.392Z,54.29
2023-05-06T11:19:01.292Z,56.98
2023-05-06T11:20:01.300Z,55.81
2023-05-06T11:21:01.280Z,58.54
2023-05-06T11:22:01.295Z,58.94
2023-05-06T11:23:01.241Z,57.14
2023-05-06T11:24:01.218Z,55.99
2023-05-06T11:25:01.204Z,56.39
2023-05-06T11:26:01.191Z,57.69
2023-05-06T11:27:01.207Z,58.19
2023-05-06T11:28:01.166Z,58.69
2023-05-06T11:29:01.155Z,58.86
2023-05-06T11:30:01.140Z,58.56
2023-05-06T11:31:01.144Z,60.16
2023-05-06T11:32:01.142Z,59.34
2023-05-06T11:33:02.206Z,57.74
2023-05-06T11:34:01.096Z,61.24
2023-05-06T11:35:01.067Z,58.11
2023-05-06T11:36:01.075Z,55.71
2023-05-06T11:37:01.064Z,55.88
2023-05-06T11:38:01.063Z,57.26
2023-05-06T11:39:01.991Z,55.16
2023-05-06T11:40:01.013Z,56.83
2023-05-06T11:41:01.009Z,56.63
2023-05-06T11:42:00.985Z,57.30
2023-05-06T11:43:00.962Z,57.77
2023-05-06T11:44:00.959Z,54.38
2023-05-06T11:45:00.936Z,54.21
2023-05-06T11:46:00.987Z,55.91
2023-05-06T11:47:00.911Z,56.45
2023-05-06T11:48:00.989Z,55.23
2023-05-06T11:49:00.887Z,54.41
2023-05-06T11:50:00.885Z,54.11
2023-05-06T11:51:00.880Z,53.19
2023-05-06T11:52:00.845Z,52.76
2023-05-06T11:53:00.828Z,51.65
2023-05-06T11:54:00.826Z,51.07
2023-05-06T11:55:00.817Z,49.66
2023-05-06T11:56:00.817Z,50.16
2023-05-06T11:57:00.775Z,50.93
2023-05-06T11:58:00.785Z,48.15
2023-05-06T11:59:00.744Z,49.02
2023-05-06T12:00:00.752Z,47.12
2023-05-06T12:01:00.712Z,47.77
2023-05-06T12:02:00.718Z,45.41
2023-05-06T12:03:00.793Z,46.33
2023-05-06T12:04:00.803Z,49.22
2023-05-06T12:05:00.762Z,47.53
2023-05-06T12:06:00.653Z,49.27
2023-05-06T12:07:00.644Z,48.84
2023-05-06T12:08:00.644Z,51.54
2023-05-06T12:09:00.638Z,49.98
2023-05-06T12:10:00.688Z,49.16
2023-05-06T12:11:00.593Z,50.63
2023-05-06T12:12:00.595Z,49.34
2023-05-06T12:13:00.649Z,50.81
2023-05-06T12:14:00.563Z,50.38
2023-05-06T12:15:00.543Z,49.39
2023-05-06T12:16:00.608Z,51.62
2023-05-06T12:17:00.510Z,51.07
2023-05-06T12:18:00.574Z,50.83
2023-05-06T12:19:00.507Z,49.32
2023-05-06T12:20:00.479Z,48.30
2023-05-06T12:21:00.464Z,48.55
2023-05-06T12:22:00.451Z,48.03
2023-05-06T12:23:00.444Z,46.04
2023-05-06T12:24:00.500Z,45.84
2023-05-06T12:25:00.406Z,46.31
2023-05-06T12:26:00.383Z,46.11
2023-05-06T12:27:00.377Z,45.60
2023-05-06T12:28:00.386Z,44.81
2023-05-06T12:29:00.401Z,46.18
2023-05-06T12:30:00.332Z,47.02
2023-05-06T12:31:00.331Z,46.50
2023-05-06T12:32:00.415Z,45.90
2023-05-06T12:33:00.391Z,46.88
2023-05-06T12:34:01.272Z,46.97
2023-05-06T12:35:00.281Z,46.78
2023-05-06T12:36:00.262Z,47.37
2023-05-06T12:37:00.264Z,45.96
2023-05-06T12:38:00.262Z,45.96
2023-05-06T12:39:00.234Z,46.04
2023-05-06T12:40:00.226Z,44.85
2023-05-06T12:41:00.211Z,44.56
2023-05-06T12:42:00.202Z,45.37
2023-05-06T12:43:00.172Z,46.23
2023-05-06T12:44:00.167Z,45.45
2023-05-06T12:45:00.212Z,45.25
2023-05-06T12:46:00.215Z,44.95
2023-05-06T12:47:00.180Z,44.95
2023-05-06T12:48:00.200Z,44.28
2023-05-06T12:49:00.158Z,45.57
2023-05-06T12:50:00.141Z,45.86
2023-05-06T12:51:00.313Z,45.49
2023-05-06T12:52:00.092Z,45.79
2023-05-06T12:53:00.732Z,46.33